sensor_id;sensor_type;location;lat;lon;timestamp;temperature;humidity
50067;DHT22;35952;52.524;13.340;2023-08-06T08:21:32;17.90;99.90
50067;DHT22;35952;52.524;13.340;2023-08-06T08:24:00;17.90;99.90
50067;DHT22;35952;52.524;13.340;2023-08-06T08:26:26;18.00;99.90
50067;DHT22;35952;52.524;13.340;2023-08-06T08:28:53;18.00;99.90
50067;DHT22;35952;52.524;13.340;2023-08-06T08:31:18;18.10;99.90
50067;DHT22;35952;52.524;13.340;2023-08-06T08:33:44;18.10;99.90
50067;DHT22;35952;52.524;13.340;2023-08-06T08:36:09;18.10;99.90
50067;DHT22;35952;52.524;13.340;2023-08-06T08:38:35;18.10;99.90
50067;DHT22;35952;52.524;13.340;2023-08-06T08:41:01;18.20;99.90
50067;DHT22;35952;52.524;13.340;2023-08-06T08:43:27;18.20;99.90
50067;DHT22;35952;52.524;13.340;2023-08-06T08:45:54;18.20;99.90
50067;DHT22;35952;52.524;13.340;2023-08-06T08:48:26;18.20;99.90
50067;DHT22;35952;52.524;13.340;2023-08-06T08:50:52;18.20;99.90
50067;DHT22;35952;52.524;13.340;2023-08-06T08:53:18;18.20;99.90
50067;DHT22;35952;52.524;13.340;2023-08-06T08:55:47;18.30;99.90
50067;DHT22;35952;52.524;13.340;2023-08-06T08:58:13;18.40;99.90
50067;DHT22;35952;52.524;13.340;2023-08-06T09:00:41;18.40;99.90
50067;DHT22;35952;52.524;13.340;2023-08-06T09:03:07;18.40;99.90
50067;DHT22;35952;52.524;13.340;2023-08-06T09:05:33;18.50;99.90
50067;DHT22;35952;52.524;13.340;2023-08-06T09:08:04;18.50;99.90
50067;DHT22;35952;52.524;13.340;2023-08-06T09:10:30;18.60;99.90
50067;DHT22;35952;52.524;13.340;2023-08-06T09:12:57;18.60;99.90
50067;DHT22;35952;52.524;13.340;2023-08-06T09:15:26;18.60;99.90
50067;DHT22;35952;52.524;13.340;2023-08-06T09:17:53;18.60;99.90
50067;DHT22;35952;52.524;13.340;2023-08-06T09:20:18;18.60;99.90
50067;DHT22;35952;52.524;13.340;2023-08-06T09:22:44;18.60;99.90
50067;DHT22;35952;52.524;13.340;2023-08-06T09:25:10;18.60;99.90
50067;DHT22;35952;52.524;13.340;2023-08-06T09:27:37;18.70;99.90
50067;DHT22;35952;52.524;13.340;2023-08-06T09:30:04;18.70;99.90
50067;DHT22;35952;52.524;13.340;2023-08-06T09:32:49;18.60;99.90
50067;DHT22;35952;52.524;13.340;2023-08-06T09:35:17;18.70;99.90
50067;DHT22;35952;52.524;13.340;2023-08-06T09:37:43;18.60;99.90
50067;DHT22;35952;52.524;13.340;2023-08-06T09:40:28;18.50;99.90
50067;DHT22;35952;52.524;13.340;2023-08-06T09:42:54;18.50;99.90
50067;DHT22;35952;52.524;13.340;2023-08-06T09:45:20;18.60;99.90
50067;DHT22;35952;52.524;13.340;2023-08-06T09:47:48;18.60;99.90
50067;DHT22;35952;52.524;13.340;2023-08-06T09:50:17;18.60;99.90
50067;DHT22;35952;52.524;13.340;2023-08-06T09:52:44;18.70;99.90
50067;DHT22;35952;52.524;13.340;2023-08-06T09:55:12;18.70;99.90
50067;DHT22;35952;52.524;13.340;2023-08-06T09:57:38;18.70;99.90
50067;DHT22;35952;52.524;13.340;2023-08-06T10:00:05;18.70;99.90
50067;DHT22;35952;52.524;13.340;2023-08-06T10:02:34;18.70;99.90
50067;DHT22;35952;52.524;13.340;2023-08-06T10:05:00;18.60;99.90
50067;DHT22;35952;52.524;13.340;2023-08-06T10:07:26;18.70;99.90
50067;DHT22;35952;52.524;13.340;2023-08-06T10:09:52;18.60;99.90
50067;DHT22;35952;52.524;13.340;2023-08-06T10:12:18;18.50;99.90
50067;DHT22;35952;52.524;13.340;2023-08-06T10:14:46;18.40;99.90
50067;DHT22;35952;52.524;13.340;2023-08-06T10:17:12;18.20;99.90
50067;DHT22;35952;52.524;13.340;2023-08-06T10:19:38;18.10;99.90
50067;DHT22;35952;52.524;13.340;2023-08-06T10:22:11;18.00;99.90
50067;DHT22;35952;52.524;13.340;2023-08-06T10:24:53;18.00;99.90
50067;DHT22;35952;52.524;13.340;2023-08-06T10:27:29;18.00;99.90
50067;DHT22;35952;52.524;13.340;2023-08-06T10:29:56;18.00;99.90
50067;DHT22;35952;52.524;13.340;2023-08-06T10:33:22;17.90;99.90
50067;DHT22;35952;52.524;13.340;2023-08-06T10:35:46;17.90;99.90
50067;DHT22;35952;52.524;13.340;2023-08-06T10:38:16;17.90;99.90
50067;DHT22;35952;52.524;13.340;2023-08-06T10:43:30;17.90;99.90
50067;DHT22;35952;52.524;13.340;2023-08-06T10:45:58;17.90;99.90
50067;DHT22;35952;52.524;13.340;2023-08-06T10:48:38;17.80;99.90
50067;DHT22;35952;52.524;13.340;2023-08-06T10:51:10;17.90;99.90
50067;DHT22;35952;52.524;13.340;2023-08-06T10:53:37;17.90;99.90
50067;DHT22;35952;52.524;13.340;2023-08-06T10:56:18;17.90;99.90
50067;DHT22;35952;52.524;13.340;2023-08-06T10:58:46;17.90;99.90
50067;DHT22;35952;52.524;13.340;2023-08-06T11:01:12;17.90;99.90
50067;DHT22;35952;52.524;13.340;2023-08-06T11:03:38;17.80;99.90
50067;DHT22;35952;52.524;13.340;2023-08-06T11:06:06;17.80;99.90
50067;DHT22;35952;52.524;13.340;2023-08-06T11:08:37;17.90;99.90
50067;DHT22;35952;52.524;13.340;2023-08-06T11:11:16;17.90;99.90
50067;DHT22;35952;52.524;13.340;2023-08-06T11:13:43;17.90;99.90
50067;DHT22;35952;52.524;13.340;2023-08-06T11:16:23;17.90;99.90
50067;DHT22;35952;52.524;13.340;2023-08-06T11:18:50;17.90;99.90
50067;DHT22;35952;52.524;13.340;2023-08-06T11:21:19;17.80;99.90
50067;DHT22;35952;52.524;13.340;2023-08-06T11:23:45;17.90;99.90
50067;DHT22;35952;52.524;13.340;2023-08-06T11:26:10;17.90;99.90
50067;DHT22;35952;52.524;13.340;2023-08-06T11:28:35;17.90;99.90
50067;DHT22;35952;52.524;13.340;2023-08-06T11:31:01;17.90;99.90
50067;DHT22;35952;52.524;13.340;2023-08-06T11:33:29;17.90;99.90
50067;DHT22;35952;52.524;13.340;2023-08-06T11:35:55;17.90;99.90
50067;DHT22;35952;52.524;13.340;2023-08-06T11:38:22;17.70;99.90
50067;DHT22;35952;52.524;13.340;2023-08-06T11:40:50;17.70;99.90
50067;DHT22;35952;52.524;13.340;2023-08-06T11:43:17;17.50;99.90
50067;DHT22;35952;52.524;13.340;2023-08-06T11:45:44;17.50;99.90
50067;DHT22;35952;52.524;13.340;2023-08-06T11:48:10;17.50;99.90
50067;DHT22;35952;52.524;13.340;2023-08-06T11:50:38;17.60;99.90
50067;DHT22;35952;52.524;13.340;2023-08-06T11:53:04;17.60;99.90
50067;DHT22;35952;52.524;13.340;2023-08-06T11:55:30;17.60;99.90
50067;DHT22;35952;52.524;13.340;2023-08-06T11:57:57;17.60;99.90
50067;DHT22;35952;52.524;13.340;2023-08-06T12:00:25;17.60;99.90
50067;DHT22;35952;52.524;13.340;2023-08-06T12:02:52;17.60;99.90
50067;DHT22;35952;52.524;13.340;2023-08-06T12:05:19;17.70;99.90
50067;DHT22;35952;52.524;13.340;2023-08-06T12:07:48;17.70;99.90
50067;DHT22;35952;52.524;13.340;2023-08-06T12:10:15;17.70;99.90
50067;DHT22;35952;52.524;13.340;2023-08-06T12:12:40;17.60;99.90
50067;DHT22;35952;52.524;13.340;2023-08-06T12:15:07;17.60;99.90
50067;DHT22;35952;52.524;13.340;2023-08-06T12:17:33;17.60;99.90
50067;DHT22;35952;52.524;13.340;2023-08-06T12:19:59;17.60;99.90
50067;DHT22;35952;52.524;13.340;2023-08-06T12:22:25;17.60;99.90
50067;DHT22;35952;52.524;13.340;2023-08-06T12:24:51;17.60;99.90
50067;DHT22;35952;52.524;13.340;2023-08-06T12:27:16;17.60;99.90
50067;DHT22;35952;52.524;13.340;2023-08-06T12:29:43;17.70;99.90
50067;DHT22;35952;52.524;13.340;2023-08-06T12:32:10;17.70;99.90
50067;DHT22;35952;52.524;13.340;2023-08-06T12:34:37;17.70;99.90
50067;DHT22;35952;52.524;13.340;2023-08-06T12:37:02;17.70;99.90
50067;DHT22;35952;52.524;13.340;2023-08-06T12:39:28;17.70;99.90
50067;DHT22;35952;52.524;13.340;2023-08-06T12:41:55;17.70;99.90
50067;DHT22;35952;52.524;13.340;2023-08-06T12:44:20;17.80;99.90
50067;DHT22;35952;52.524;13.340;2023-08-06T12:46:46;17.80;99.90
50067;DHT22;35952;52.524;13.340;2023-08-06T12:49:12;17.90;99.90
50067;DHT22;35952;52.524;13.340;2023-08-06T12:51:37;17.90;99.90
50067;DHT22;35952;52.524;13.340;2023-08-06T12:54:03;17.90;99.90
50067;DHT22;35952;52.524;13.340;2023-08-06T12:56:29;17.90;99.90
50067;DHT22;35952;52.524;13.340;2023-08-06T12:58:54;17.90;99.90
50067;DHT22;35952;52.524;13.340;2023-08-06T13:01:20;17.80;99.90
50067;DHT22;35952;52.524;13.340;2023-08-06T13:03:45;17.80;99.90
50067;DHT22;35952;52.524;13.340;2023-08-06T13:06:11;17.80;99.90
50067;DHT22;35952;52.524;13.340;2023-08-06T13:08:37;17.80;99.90
50067;DHT22;35952;52.524;13.340;2023-08-06T13:11:03;17.90;99.90
50067;DHT22;35952;52.524;13.340;2023-08-06T13:13:28;17.90;99.90
50067;DHT22;35952;52.524;13.340;2023-08-06T13:15:54;17.80;99.90
50067;DHT22;35952;52.524;13.340;2023-08-06T13:18:20;17.80;99.90
50067;DHT22;35952;52.524;13.340;2023-08-06T13:20:45;17.80;99.90
50067;DHT22;35952;52.524;13.340;2023-08-06T13:23:12;17.80;99.90
50067;DHT22;35952;52.524;13.340;2023-08-06T13:25:40;17.90;99.90
50067;DHT22;35952;52.524;13.340;2023-08-06T13:28:06;18.00;99.90
50067;DHT22;35952;52.524;13.340;2023-08-06T13:30:31;18.00;99.90
50067;DHT22;35952;52.524;13.340;2023-08-06T13:32:57;18.10;99.90
50067;DHT22;35952;52.524;13.340;2023-08-06T13:35:23;18.10;99.90
50067;DHT22;35952;52.524;13.340;2023-08-06T13:37:49;18.10;99.90
50067;DHT22;35952;52.524;13.340;2023-08-06T13:40:15;18.10;99.90
50067;DHT22;35952;52.524;13.340;2023-08-06T13:42:40;18.10;99.90
50067;DHT22;35952;52.524;13.340;2023-08-06T13:45:07;18.10;99.90
50067;DHT22;35952;52.524;13.340;2023-08-06T13:47:32;18.10;99.90
50067;DHT22;35952;52.524;13.340;2023-08-06T13:49:58;18.10;99.90
50067;DHT22;35952;52.524;13.340;2023-08-06T13:52:25;18.10;99.90
50067;DHT22;35952;52.524;13.340;2023-08-06T13:54:51;18.10;99.90
50067;DHT22;35952;52.524;13.340;2023-08-06T13:57:17;18.10;99.90
50067;DHT22;35952;52.524;13.340;2023-08-06T13:59:42;18.00;99.90
50067;DHT22;35952;52.524;13.340;2023-08-06T14:02:09;17.90;99.90
50067;DHT22;35952;52.524;13.340;2023-08-06T14:04:34;17.80;99.90
50067;DHT22;35952;52.524;13.340;2023-08-06T14:07:00;17.80;99.90
50067;DHT22;35952;52.524;13.340;2023-08-06T14:09:25;17.70;99.90
50067;DHT22;35952;52.524;13.340;2023-08-06T14:11:51;17.70;99.90
50067;DHT22;35952;52.524;13.340;2023-08-06T14:14:16;17.70;99.90
50067;DHT22;35952;52.524;13.340;2023-08-06T14:16:42;17.60;99.90
50067;DHT22;35952;52.524;13.340;2023-08-06T14:19:07;17.60;99.90
50067;DHT22;35952;52.524;13.340;2023-08-06T14:21:33;17.60;99.90
50067;DHT22;35952;52.524;13.340;2023-08-06T14:23:59;17.60;99.90
50067;DHT22;35952;52.524;13.340;2023-08-06T14:26:24;17.60;99.90
50067;DHT22;35952;52.524;13.340;2023-08-06T14:28:50;17.50;99.90
50067;DHT22;35952;52.524;13.340;2023-08-06T14:31:19;17.50;99.90
50067;DHT22;35952;52.524;13.340;2023-08-06T14:33:45;17.30;99.90
50067;DHT22;35952;52.524;13.340;2023-08-06T14:36:11;17.30;99.90
50067;DHT22;35952;52.524;13.340;2023-08-06T14:38:36;17.20;99.90
50067;DHT22;35952;52.524;13.340;2023-08-06T14:41:02;17.20;99.90
50067;DHT22;35952;52.524;13.340;2023-08-06T14:43:27;17.10;99.90
50067;DHT22;35952;52.524;13.340;2023-08-06T14:45:53;17.00;99.90
50067;DHT22;35952;52.524;13.340;2023-08-06T14:48:18;17.10;99.90
50067;DHT22;35952;52.524;13.340;2023-08-06T14:50:44;17.20;99.90
50067;DHT22;35952;52.524;13.340;2023-08-06T14:53:10;17.20;99.90
50067;DHT22;35952;52.524;13.340;2023-08-06T14:55:37;17.20;99.90
50067;DHT22;35952;52.524;13.340;2023-08-06T14:58:02;17.20;99.90
50067;DHT22;35952;52.524;13.340;2023-08-06T15:00:28;17.30;99.90
50067;DHT22;35952;52.524;13.340;2023-08-06T15:02:54;17.40;99.90
50067;DHT22;35952;52.524;13.340;2023-08-06T15:05:19;17.40;99.90
50067;DHT22;35952;52.524;13.340;2023-08-06T15:07:45;17.40;99.90
50067;DHT22;35952;52.524;13.340;2023-08-06T15:10:10;17.40;99.90
50067;DHT22;35952;52.524;13.340;2023-08-06T15:12:36;17.50;99.90
50067;DHT22;35952;52.524;13.340;2023-08-06T15:15:02;17.50;99.90
50067;DHT22;35952;52.524;13.340;2023-08-06T15:17:27;17.40;99.90
50067;DHT22;35952;52.524;13.340;2023-08-06T15:19:56;17.40;99.90
50067;DHT22;35952;52.524;13.340;2023-08-06T15:22:22;17.40;99.90
50067;DHT22;35952;52.524;13.340;2023-08-06T15:24:48;17.40;99.90
50067;DHT22;35952;52.524;13.340;2023-08-06T15:27:13;17.40;99.90
50067;DHT22;35952;52.524;13.340;2023-08-06T15:29:39;17.40;99.90
50067;DHT22;35952;52.524;13.340;2023-08-06T15:32:05;17.40;99.90
50067;DHT22;35952;52.524;13.340;2023-08-06T15:34:30;17.30;99.90
50067;DHT22;35952;52.524;13.340;2023-08-06T15:36:56;17.40;99.90
50067;DHT22;35952;52.524;13.340;2023-08-06T15:39:21;17.30;99.90
50067;DHT22;35952;52.524;13.340;2023-08-06T15:41:47;17.30;99.90
50067;DHT22;35952;52.524;13.340;2023-08-06T15:44:13;17.30;99.90
50067;DHT22;35952;52.524;13.340;2023-08-06T15:46:38;17.30;99.90
50067;DHT22;35952;52.524;13.340;2023-08-06T15:49:04;17.20;99.90
50067;DHT22;35952;52.524;13.340;2023-08-06T15:51:30;17.20;99.90
50067;DHT22;35952;52.524;13.340;2023-08-06T15:53:56;17.30;99.90
50067;DHT22;35952;52.524;13.340;2023-08-06T15:56:21;17.30;99.90
50067;DHT22;35952;52.524;13.340;2023-08-06T15:58:47;17.30;99.90
50067;DHT22;35952;52.524;13.340;2023-08-06T16:01:12;17.30;99.90
50067;DHT22;35952;52.524;13.340;2023-08-06T16:03:39;17.30;99.90
50067;DHT22;35952;52.524;13.340;2023-08-06T16:06:11;17.30;99.90
50067;DHT22;35952;52.524;13.340;2023-08-06T16:08:37;17.30;99.90
50067;DHT22;35952;52.524;13.340;2023-08-06T16:11:04;17.30;99.90
50067;DHT22;35952;52.524;13.340;2023-08-06T16:13:30;17.30;99.90
50067;DHT22;35952;52.524;13.340;2023-08-06T16:15:56;17.40;99.90
50067;DHT22;35952;52.524;13.340;2023-08-06T16:18:22;17.30;99.90
50067;DHT22;35952;52.524;13.340;2023-08-06T16:20:47;17.40;99.90
50067;DHT22;35952;52.524;13.340;2023-08-06T16:23:13;17.30;99.90
50067;DHT22;35952;52.524;13.340;2023-08-06T16:25:39;17.20;99.90
50067;DHT22;35952;52.524;13.340;2023-08-06T16:28:11;17.20;99.90
50067;DHT22;35952;52.524;13.340;2023-08-06T16:30:43;17.10;99.90
50067;DHT22;35952;52.524;13.340;2023-08-06T16:33:09;17.20;99.90
50067;DHT22;35952;52.524;13.340;2023-08-06T16:35:35;17.10;99.90
50067;DHT22;35952;52.524;13.340;2023-08-06T16:38:00;17.00;99.90
50067;DHT22;35952;52.524;13.340;2023-08-06T16:40:26;17.00;99.90
50067;DHT22;35952;52.524;13.340;2023-08-06T16:42:51;17.00;99.90
50067;DHT22;35952;52.524;13.340;2023-08-06T16:45:17;17.00;99.90
50067;DHT22;35952;52.524;13.340;2023-08-06T16:47:43;17.00;99.90
50067;DHT22;35952;52.524;13.340;2023-08-06T16:50:08;17.00;99.90
50067;DHT22;35952;52.524;13.340;2023-08-06T16:52:34;16.90;99.90
50067;DHT22;35952;52.524;13.340;2023-08-06T16:55:00;16.90;99.90
50067;DHT22;35952;52.524;13.340;2023-08-06T16:57:25;16.90;99.90
50067;DHT22;35952;52.524;13.340;2023-08-06T16:59:51;16.90;99.90
50067;DHT22;35952;52.524;13.340;2023-08-06T17:02:16;16.90;99.90
50067;DHT22;35952;52.524;13.340;2023-08-06T17:04:44;16.80;99.90
50067;DHT22;35952;52.524;13.340;2023-08-06T17:07:10;16.80;99.90
50067;DHT22;35952;52.524;13.340;2023-08-06T17:09:35;16.80;99.90
50067;DHT22;35952;52.524;13.340;2023-08-06T17:12:00;16.70;99.90
50067;DHT22;35952;52.524;13.340;2023-08-06T17:14:26;16.70;99.90
50067;DHT22;35952;52.524;13.340;2023-08-06T17:16:51;16.70;99.90
50067;DHT22;35952;52.524;13.340;2023-08-06T17:19:17;16.70;99.90
50067;DHT22;35952;52.524;13.340;2023-08-06T17:21:42;16.70;99.90
50067;DHT22;35952;52.524;13.340;2023-08-06T17:24:08;16.70;99.90
50067;DHT22;35952;52.524;13.340;2023-08-06T17:26:33;16.70;99.90
50067;DHT22;35952;52.524;13.340;2023-08-06T17:28:59;16.70;99.90
50067;DHT22;35952;52.524;13.340;2023-08-06T17:31:25;16.60;99.90
50067;DHT22;35952;52.524;13.340;2023-08-06T17:33:50;16.60;99.90
50067;DHT22;35952;52.524;13.340;2023-08-06T17:36:16;16.60;99.90
50067;DHT22;35952;52.524;13.340;2023-08-06T17:38:41;16.60;99.90
50067;DHT22;35952;52.524;13.340;2023-08-06T17:41:07;16.50;99.90
50067;DHT22;35952;52.524;13.340;2023-08-06T17:43:32;16.50;99.90
50067;DHT22;35952;52.524;13.340;2023-08-06T17:45:58;16.50;99.90
50067;DHT22;35952;52.524;13.340;2023-08-06T17:48:23;16.50;99.90
50067;DHT22;35952;52.524;13.340;2023-08-06T17:50:49;16.50;99.90
50067;DHT22;35952;52.524;13.340;2023-08-06T17:53:15;16.50;99.90
50067;DHT22;35952;52.524;13.340;2023-08-06T17:55:40;16.40;99.90
50067;DHT22;35952;52.524;13.340;2023-08-06T17:58:06;16.40;99.90
50067;DHT22;35952;52.524;13.340;2023-08-06T18:00:32;16.40;99.90
50067;DHT22;35952;52.524;13.340;2023-08-06T18:02:57;16.40;99.90
50067;DHT22;35952;52.524;13.340;2023-08-06T18:05:23;16.40;99.90
50067;DHT22;35952;52.524;13.340;2023-08-06T18:07:49;16.40;99.90
50067;DHT22;35952;52.524;13.340;2023-08-06T18:10:15;16.50;99.90
50067;DHT22;35952;52.524;13.340;2023-08-06T18:12:40;16.50;99.90
50067;DHT22;35952;52.524;13.340;2023-08-06T18:15:08;16.50;99.90
50067;DHT22;35952;52.524;13.340;2023-08-06T18:17:36;16.50;99.90
50067;DHT22;35952;52.524;13.340;2023-08-06T18:20:02;16.50;99.90
50067;DHT22;35952;52.524;13.340;2023-08-06T18:22:29;16.50;99.90
50067;DHT22;35952;52.524;13.340;2023-08-06T18:24:54;16.50;99.90
50067;DHT22;35952;52.524;13.340;2023-08-06T18:27:22;16.50;99.90
50067;DHT22;35952;52.524;13.340;2023-08-06T18:29:48;16.50;99.90
50067;DHT22;35952;52.524;13.340;2023-08-06T18:32:13;16.50;99.90
50067;DHT22;35952;52.524;13.340;2023-08-06T18:34:39;16.50;99.90
50067;DHT22;35952;52.524;13.340;2023-08-06T18:37:05;16.50;99.90
50067;DHT22;35952;52.524;13.340;2023-08-06T18:39:31;16.50;99.90
50067;DHT22;35952;52.524;13.340;2023-08-06T18:41:56;16.50;99.90
50067;DHT22;35952;52.524;13.340;2023-08-06T18:44:22;16.60;99.90
50067;DHT22;35952;52.524;13.340;2023-08-06T18:46:47;16.60;99.90
50067;DHT22;35952;52.524;13.340;2023-08-06T18:49:13;16.60;99.90
50067;DHT22;35952;52.524;13.340;2023-08-06T18:51:41;16.60;99.90
50067;DHT22;35952;52.524;13.340;2023-08-06T18:54:06;16.60;99.90
50067;DHT22;35952;52.524;13.340;2023-08-06T18:56:32;16.60;99.90
50067;DHT22;35952;52.524;13.340;2023-08-06T18:58:57;16.60;99.90
50067;DHT22;35952;52.524;13.340;2023-08-06T19:01:23;16.60;99.90
50067;DHT22;35952;52.524;13.340;2023-08-06T19:03:48;16.60;99.90
50067;DHT22;35952;52.524;13.340;2023-08-06T19:06:14;16.60;99.90
50067;DHT22;35952;52.524;13.340;2023-08-06T19:08:40;16.60;99.90
50067;DHT22;35952;52.524;13.340;2023-08-06T19:11:05;16.70;99.90
50067;DHT22;35952;52.524;13.340;2023-08-06T19:13:31;16.60;99.90
50067;DHT22;35952;52.524;13.340;2023-08-06T19:15:57;16.60;99.90
50067;DHT22;35952;52.524;13.340;2023-08-06T19:18:22;16.60;99.90
50067;DHT22;35952;52.524;13.340;2023-08-06T19:20:48;16.50;99.90
50067;DHT22;35952;52.524;13.340;2023-08-06T19:23:14;16.60;99.90
50067;DHT22;35952;52.524;13.340;2023-08-06T19:25:46;16.60;99.90
50067;DHT22;35952;52.524;13.340;2023-08-06T19:28:13;16.60;99.90
50067;DHT22;35952;52.524;13.340;2023-08-06T19:30:42;16.60;99.90
50067;DHT22;35952;52.524;13.340;2023-08-06T19:33:09;16.60;99.90
50067;DHT22;35952;52.524;13.340;2023-08-06T19:35:44;16.60;99.90
50067;DHT22;35952;52.524;13.340;2023-08-06T19:38:09;16.60;99.90
50067;DHT22;35952;52.524;13.340;2023-08-06T19:40:35;16.60;99.90
50067;DHT22;35952;52.524;13.340;2023-08-06T19:43:00;16.60;99.90
50067;DHT22;35952;52.524;13.340;2023-08-06T19:45:26;16.60;99.90
50067;DHT22;35952;52.524;13.340;2023-08-06T19:47:51;16.70;99.90
50067;DHT22;35952;52.524;13.340;2023-08-06T19:50:17;16.70;99.90
50067;DHT22;35952;52.524;13.340;2023-08-06T19:52:42;16.60;99.90
50067;DHT22;35952;52.524;13.340;2023-08-06T19:55:08;16.60;99.90
50067;DHT22;35952;52.524;13.340;2023-08-06T19:57:33;16.60;99.90
50067;DHT22;35952;52.524;13.340;2023-08-06T20:00:00;16.60;99.90
50067;DHT22;35952;52.524;13.340;2023-08-06T20:02:26;16.70;99.90
50067;DHT22;35952;52.524;13.340;2023-08-06T20:04:52;16.70;99.90
50067;DHT22;35952;52.524;13.340;2023-08-06T20:07:17;16.70;99.90
50067;DHT22;35952;52.524;13.340;2023-08-06T20:09:43;16.60;99.90
50067;DHT22;35952;52.524;13.340;2023-08-06T20:12:09;16.60;99.90
50067;DHT22;35952;52.524;13.340;2023-08-06T20:14:35;16.60;99.90
50067;DHT22;35952;52.524;13.340;2023-08-06T20:17:00;16.60;99.90
50067;DHT22;35952;52.524;13.340;2023-08-06T20:19:26;16.60;99.90
50067;DHT22;35952;52.524;13.340;2023-08-06T20:21:51;16.60;99.90
50067;DHT22;35952;52.524;13.340;2023-08-06T20:24:17;16.60;99.90
50067;DHT22;35952;52.524;13.340;2023-08-06T20:26:42;16.60;99.90
50067;DHT22;35952;52.524;13.340;2023-08-06T20:29:08;16.60;99.90
50067;DHT22;35952;52.524;13.340;2023-08-06T20:31:33;16.60;99.90
50067;DHT22;35952;52.524;13.340;2023-08-06T20:33:59;16.50;99.90
50067;DHT22;35952;52.524;13.340;2023-08-06T20:36:24;16.50;99.90
50067;DHT22;35952;52.524;13.340;2023-08-06T20:38:50;16.50;99.90
50067;DHT22;35952;52.524;13.340;2023-08-06T20:41:15;16.50;99.90
50067;DHT22;35952;52.524;13.340;2023-08-06T20:43:41;16.50;99.90
50067;DHT22;35952;52.524;13.340;2023-08-06T20:46:07;16.40;99.90
50067;DHT22;35952;52.524;13.340;2023-08-06T20:48:33;16.40;99.90
50067;DHT22;35952;52.524;13.340;2023-08-06T20:50:58;16.50;99.90
50067;DHT22;35952;52.524;13.340;2023-08-06T20:53:24;16.40;99.90
50067;DHT22;35952;52.524;13.340;2023-08-06T20:56:00;16.40;99.90
50067;DHT22;35952;52.524;13.340;2023-08-06T20:58:26;16.40;99.90
50067;DHT22;35952;52.524;13.340;2023-08-06T21:00:54;16.40;99.90
50067;DHT22;35952;52.524;13.340;2023-08-06T21:03:21;16.40;99.90
50067;DHT22;35952;52.524;13.340;2023-08-06T21:05:57;16.40;99.90
50067;DHT22;35952;52.524;13.340;2023-08-06T21:08:22;16.30;99.90
50067;DHT22;35952;52.524;13.340;2023-08-06T21:10:48;16.30;99.90
50067;DHT22;35952;52.524;13.340;2023-08-06T21:13:14;16.20;99.90
50067;DHT22;35952;52.524;13.340;2023-08-06T21:15:39;16.20;99.90
50067;DHT22;35952;52.524;13.340;2023-08-06T21:18:05;16.30;99.90
50067;DHT22;35952;52.524;13.340;2023-08-06T21:20:32;16.20;99.90
50067;DHT22;35952;52.524;13.340;2023-08-06T21:22:58;16.20;99.90
50067;DHT22;35952;52.524;13.340;2023-08-06T21:25:23;16.20;99.90
50067;DHT22;35952;52.524;13.340;2023-08-06T21:27:49;16.20;99.90
50067;DHT22;35952;52.524;13.340;2023-08-06T21:30:15;16.10;99.90
50067;DHT22;35952;52.524;13.340;2023-08-06T21:32:40;16.10;99.90
50067;DHT22;35952;52.524;13.340;2023-08-06T21:35:06;16.10;99.90
50067;DHT22;35952;52.524;13.340;2023-08-06T21:37:32;16.10;99.90
50067;DHT22;35952;52.524;13.340;2023-08-06T21:39:57;16.10;99.90
50067;DHT22;35952;52.524;13.340;2023-08-06T21:42:25;16.10;99.90
50067;DHT22;35952;52.524;13.340;2023-08-06T21:44:51;16.10;99.90
50067;DHT22;35952;52.524;13.340;2023-08-06T21:47:16;16.10;99.90
50067;DHT22;35952;52.524;13.340;2023-08-06T21:49:42;16.00;99.90
50067;DHT22;35952;52.524;13.340;2023-08-06T21:52:07;16.00;99.90
50067;DHT22;35952;52.524;13.340;2023-08-06T21:54:33;16.00;99.90
50067;DHT22;35952;52.524;13.340;2023-08-06T21:56:58;16.10;99.90
50067;DHT22;35952;52.524;13.340;2023-08-06T21:59:24;16.10;99.90
50067;DHT22;35952;52.524;13.340;2023-08-06T22:01:50;16.10;99.90
50067;DHT22;35952;52.524;13.340;2023-08-06T22:04:16;16.00;99.90
50067;DHT22;35952;52.524;13.340;2023-08-06T22:06:42;16.00;99.90
50067;DHT22;35952;52.524;13.340;2023-08-06T22:09:07;16.00;99.90
50067;DHT22;35952;52.524;13.340;2023-08-06T22:11:33;16.00;99.90
50067;DHT22;35952;52.524;13.340;2023-08-06T22:13:58;16.00;99.90
50067;DHT22;35952;52.524;13.340;2023-08-06T22:16:24;15.90;99.90
50067;DHT22;35952;52.524;13.340;2023-08-06T22:18:50;15.90;99.90
50067;DHT22;35952;52.524;13.340;2023-08-06T22:21:15;15.90;99.90
50067;DHT22;35952;52.524;13.340;2023-08-06T22:23:41;15.90;99.90
50067;DHT22;35952;52.524;13.340;2023-08-06T22:26:08;15.90;99.90
50067;DHT22;35952;52.524;13.340;2023-08-06T22:28:33;15.90;99.90
50067;DHT22;35952;52.524;13.340;2023-08-06T22:30:59;15.90;99.90
50067;DHT22;35952;52.524;13.340;2023-08-06T22:33:25;15.90;99.90
50067;DHT22;35952;52.524;13.340;2023-08-06T22:35:55;15.90;99.90
50067;DHT22;35952;52.524;13.340;2023-08-06T22:38:21;15.90;99.90
50067;DHT22;35952;52.524;13.340;2023-08-06T22:40:47;15.90;99.90
50067;DHT22;35952;52.524;13.340;2023-08-06T22:43:12;15.90;99.90
50067;DHT22;35952;52.524;13.340;2023-08-06T22:45:38;15.90;99.90
50067;DHT22;35952;52.524;13.340;2023-08-06T22:48:03;15.90;99.90
50067;DHT22;35952;52.524;13.340;2023-08-06T22:50:29;15.90;99.90
50067;DHT22;35952;52.524;13.340;2023-08-06T22:52:56;15.90;99.90
50067;DHT22;35952;52.524;13.340;2023-08-06T22:55:21;15.90;99.90
50067;DHT22;35952;52.524;13.340;2023-08-06T22:57:47;15.90;99.90
50067;DHT22;35952;52.524;13.340;2023-08-06T23:00:13;15.90;99.90
50067;DHT22;35952;52.524;13.340;2023-08-06T23:02:38;15.90;99.90
50067;DHT22;35952;52.524;13.340;2023-08-06T23:05:05;15.90;99.90
50067;DHT22;35952;52.524;13.340;2023-08-06T23:07:30;15.90;99.90
50067;DHT22;35952;52.524;13.340;2023-08-06T23:09:56;15.90;99.90
50067;DHT22;35952;52.524;13.340;2023-08-06T23:12:21;15.90;99.90
50067;DHT22;35952;52.524;13.340;2023-08-06T23:14:47;15.80;99.90
50067;DHT22;35952;52.524;13.340;2023-08-06T23:17:13;15.90;99.90
50067;DHT22;35952;52.524;13.340;2023-08-06T23:19:38;15.90;99.90
50067;DHT22;35952;52.524;13.340;2023-08-06T23:22:04;15.90;99.90
50067;DHT22;35952;52.524;13.340;2023-08-06T23:24:29;15.80;99.90
50067;DHT22;35952;52.524;13.340;2023-08-06T23:26:55;15.80;99.90
50067;DHT22;35952;52.524;13.340;2023-08-06T23:29:21;15.80;99.90
50067;DHT22;35952;52.524;13.340;2023-08-06T23:31:46;15.80;99.90
50067;DHT22;35952;52.524;13.340;2023-08-06T23:34:12;15.90;99.90